Time;durP1;ratioP1;P1;durP2;ratioP2;P2;SDS_P1;SDS_P2;PMS_P1;PMS_P2;Temp;Humidity;BMP_temperature;BMP_pressure;BME280_temperature;BME280_humidity;BME280_pressure;Samples;Min_cycle;Max_cycle;Signal;HPM_P1;HPM_P2
2023/08/26 00:01:46;;;;;;;7.95;4.03;;;17.80;99.90;;;;;;5137108;27;20047;-41
2023/08/26 00:04:12;;;;;;;8.07;4.25;;;17.80;99.90;;;;;;5137326;27;20050;-41
2023/08/26 00:06:38;;;;;;;6.63;3.53;;;17.80;99.90;;;;;;5137589;27;20040;-41
2023/08/26 00:09:03;;;;;;;8.43;4.05;;;17.70;99.90;;;;;;5137233;27;20130;-41
2023/08/26 00:11:29;;;;;;;9.13;3.90;;;17.70;99.90;;;;;;5137037;27;20043;-41
2023/08/26 00:13:55;;;;;;;7.22;4.13;;;17.70;99.90;;;;;;5136968;27;20039;-41
2023/08/26 00:16:21;;;;;;;8.40;3.78;;;17.60;99.90;;;;;;5118688;27;20039;-41
2023/08/26 00:18:49;;;;;;;8.00;3.67;;;17.60;99.90;;;;;;5137166;27;20039;-41
2023/08/26 00:21:16;;;;;;;6.97;4.00;;;17.60;99.90;;;;;;5137048;27;20057;-41
2023/08/26 00:23:42;;;;;;;8.68;4.20;;;17.50;99.90;;;;;;5118690;27;20046;-41
2023/08/26 00:26:11;;;;;;;9.13;4.60;;;17.50;99.90;;;;;;5136827;27;20046;-41
2023/08/26 00:28:36;;;;;;;10.80;4.53;;;17.50;99.90;;;;;;5136746;27;20053;-41
2023/08/26 00:31:03;;;;;;;7.82;4.47;;;17.40;99.90;;;;;;5136539;27;20039;-41
2023/08/26 00:33:29;;;;;;;9.35;3.97;;;17.40;99.90;;;;;;5136957;27;20082;-41
2023/08/26 00:35:55;;;;;;;;;;;17.40;99.90;;;;;;5118566;27;20047;-41
2023/08/26 00:38:21;;;;;;;7.97;4.00;;;17.40;99.90;;;;;;5136857;27;19926;-41
2023/08/26 00:40:47;;;;;;;9.95;4.40;;;17.30;99.90;;;;;;5136636;27;20461;-41
2023/08/26 00:43:13;;;;;;;8.13;4.00;;;17.30;99.90;;;;;;5136480;27;20174;-41
2023/08/26 00:45:43;;;;;;;6.78;3.75;;;17.30;99.90;;;;;;5136067;27;20406;-41
2023/08/26 00:48:11;;;;;;;7.50;3.95;;;17.20;99.90;;;;;;5136472;27;20078;-41
2023/08/26 00:50:46;;;;;;;7.43;4.03;;;17.30;99.90;;;;;;5136330;27;20561;-41
2023/08/26 00:53:13;;;;;;;7.57;3.90;;;17.20;99.90;;;;;;5136524;27;20070;-41
2023/08/26 00:55:40;;;;;;;8.35;4.03;;;17.20;99.90;;;;;;5136205;27;20039;-41
2023/08/26 00:58:06;;;;;;;8.38;3.92;;;17.20;99.90;;;;;;5136049;27;20085;-41
2023/08/26 01:00:36;;;;;;;7.25;4.30;;;17.20;99.90;;;;;;5136209;27;20075;-41
2023/08/26 01:03:06;;;;;;;7.85;3.58;;;17.20;99.90;;;;;;5136212;27;20051;-41
2023/08/26 01:05:31;;;;;;;7.78;3.67;;;17.10;99.90;;;;;;5117906;27;20054;-41
2023/08/26 01:07:59;;;;;;;6.65;3.70;;;17.10;99.90;;;;;;5136130;27;20054;-41
2023/08/26 01:10:46;;;;;;;7.18;3.42;;;17.10;99.90;;;;;;5135974;27;20424;-41
2023/08/26 01:13:14;;;;;;;8.73;4.18;;;17.10;99.90;;;;;;5135971;27;20134;-41
2023/08/26 01:15:47;;;;;;;7.53;3.70;;;17.00;99.90;;;;;;5135860;27;20040;-41
2023/08/26 01:18:15;;;;;;;5.20;3.13;;;16.90;99.90;;;;;;5135833;27;20088;-41
2023/08/26 01:20:43;;;;;;;6.35;3.42;;;16.90;99.90;;;;;;5135867;27;20406;-41
2023/08/26 01:23:40;;;;;;;6.22;3.70;;;16.90;99.90;;;;;;5135659;27;20039;-41
2023/08/26 01:26:06;;;;;;;6.32;2.72;;;16.80;99.90;;;;;;5135847;27;20053;-41
2023/08/26 01:28:32;;;;;;;5.57;2.85;;;16.80;99.90;;;;;;5135632;27;20043;-41
2023/08/26 01:31:01;;;;;;;6.10;2.42;;;16.80;99.90;;;;;;5135527;27;20078;-41
2023/08/26 01:33:33;;;;;;;6.28;2.80;;;16.80;99.90;;;;;;5135399;27;20051;-42
2023/08/26 01:36:03;;;;;;;5.30;2.60;;;16.80;99.90;;;;;;5135759;27;20048;-41
2023/08/26 01:38:29;;;;;;;5.75;2.72;;;16.70;99.90;;;;;;5117262;27;20043;-41
2023/08/26 01:40:56;;;;;;;6.07;2.70;;;16.70;99.90;;;;;;5135376;27;20475;-41
2023/08/26 01:43:23;;;;;;;5.38;2.80;;;16.70;99.90;;;;;;5135184;27;20043;-41
2023/08/26 01:45:52;;;;;;;6.82;2.90;;;16.60;99.90;;;;;;5135050;27;20066;-42
2023/08/26 01:48:18;;;;;;;7.82;2.58;;;16.60;99.90;;;;;;5135163;27;20047;-42
2023/08/26 01:50:44;;;;;;;5.85;2.58;;;16.70;99.90;;;;;;5135283;27;20057;-42
2023/08/26 01:53:09;;;;;;;5.95;2.78;;;16.60;99.90;;;;;;5135272;27;20157;-42
2023/08/26 01:55:35;;;;;;;5.47;2.22;;;16.60;99.90;;;;;;5135138;27;20035;-42
2023/08/26 01:58:01;;;;;;;6.55;2.80;;;16.60;99.90;;;;;;5135212;27;20043;-42
2023/08/26 02:00:26;;;;;;;5.43;2.75;;;16.60;99.90;;;;;;5135020;27;20043;-41
2023/08/26 02:02:52;;;;;;;6.65;2.47;;;16.60;99.90;;;;;;5134918;27;20529;-42
2023/08/26 02:05:18;;;;;;;5.63;2.60;;;16.60;99.90;;;;;;5135527;27;20043;-42
2023/08/26 02:07:44;;;;;;;5.80;2.80;;;16.50;99.90;;;;;;5134960;27;20509;-41
2023/08/26 02:10:10;;;;;;;6.10;2.30;;;16.50;99.90;;;;;;5134960;27;20039;-42
2023/08/26 02:12:35;;;;;;;5.15;2.42;;;16.50;99.90;;;;;;5134850;27;20039;-41
2023/08/26 02:15:02;;;;;;;5.43;2.00;;;16.40;99.90;;;;;;5134815;27;20118;-42
2023/08/26 02:17:28;;;;;;;5.00;2.50;;;16.40;99.90;;;;;;5134605;27;20065;-42
2023/08/26 02:19:54;;;;;;;6.00;2.22;;;16.40;99.90;;;;;;5134751;27;20055;-42
2023/08/26 02:22:20;;;;;;;5.18;2.00;;;16.40;99.90;;;;;;5135070;27;20053;-42
2023/08/26 02:24:46;;;;;;;5.68;2.42;;;16.40;99.90;;;;;;5116466;27;20035;-42
2023/08/26 02:27:12;;;;;;;5.72;2.42;;;16.30;99.90;;;;;;5134833;27;20043;-42
2023/08/26 02:29:37;;;;;;;4.80;2.00;;;16.30;99.90;;;;;;5116432;27;20383;-42
2023/08/26 02:32:03;;;;;;;7.15;2.42;;;16.30;99.90;;;;;;5134540;27;20051;-42
2023/08/26 02:34:29;;;;;;;5.10;2.28;;;16.30;99.90;;;;;;5134612;28;20079;-42
2023/08/26 02:36:54;;;;;;;4.70;2.10;;;16.20;99.90;;;;;;5134609;28;20085;-42
2023/08/26 02:39:20;;;;;;;4.72;2.40;;;16.20;99.90;;;;;;5099641;28;20559;-42
2023/08/26 02:41:46;;;;;;;5.88;2.30;;;16.20;99.90;;;;;;5134413;28;20538;-42
2023/08/26 02:44:11;;;;;;;4.43;2.20;;;16.10;99.90;;;;;;5134549;28;20078;-42
2023/08/26 02:46:37;;;;;;;5.82;1.92;;;16.10;99.90;;;;;;5134720;28;20049;-42
2023/08/26 02:49:03;;;;;;;4.80;2.25;;;16.10;99.90;;;;;;5134804;28;20043;-42
2023/08/26 02:51:29;;;;;;;5.95;2.00;;;16.10;99.90;;;;;;5134430;28;20043;-42
2023/08/26 02:53:54;;;;;;;5.18;1.92;;;16.10;99.90;;;;;;5134530;28;20047;-42
2023/08/26 02:56:20;;;;;;;7.80;2.97;;;16.00;99.90;;;;;;5135877;27;20399;-42
2023/08/26 02:58:46;;;;;;;4.10;2.17;;;16.00;99.90;;;;;;5138796;27;20295;-42
2023/08/26 03:01:11;;;;;;;6.40;2.22;;;16.00;99.90;;;;;;5138491;27;20408;-42
2023/08/26 03:03:37;;;;;;;8.18;2.13;;;16.00;99.90;;;;;;5138524;27;20054;-42
2023/08/26 03:06:03;;;;;;;6.20;2.50;;;16.00;99.90;;;;;;5138484;27;20035;-42
2023/08/26 03:08:28;;;;;;;3.90;2.00;;;16.00;99.90;;;;;;5138454;27;20128;-42
2023/08/26 03:11:07;;;;;;;6.32;2.13;;;16.00;99.90;;;;;;5120049;27;20043;-42
2023/08/26 03:13:33;;;;;;;5.68;2.58;;;16.00;99.90;;;;;;5138153;27;20043;-42
2023/08/26 03:16:09;;;;;;;5.40;2.45;;;15.90;99.90;;;;;;5138213;27;20035;-40
2023/08/26 03:18:35;;;;;;;7.43;2.80;;;15.90;99.90;;;;;;5138275;27;20126;-40
2023/08/26 03:21:08;;;;;;;4.60;2.17;;;15.90;99.90;;;;;;5138367;27;20101;-40
2023/08/26 03:23:34;;;;;;;5.40;2.17;;;15.90;99.90;;;;;;5137987;27;20525;-40
2023/08/26 03:26:00;;;;;;;;;;;15.90;99.90;;;;;;5138314;27;20079;-40
2023/08/26 03:28:26;;;;;;;4.10;2.20;;;15.90;99.90;;;;;;5137740;27;19953;-40
2023/08/26 03:30:52;;;;;;;4.43;2.00;;;15.80;99.90;;;;;;5138474;27;20121;-40
2023/08/26 03:33:18;;;;;;;6.18;2.30;;;15.80;99.90;;;;;;5138047;27;20049;-40
2023/08/26 03:35:43;;;;;;;5.05;2.15;;;15.80;99.90;;;;;;5137812;27;20143;-40
2023/08/26 03:38:09;;;;;;;4.32;2.17;;;15.80;99.90;;;;;;5137941;27;20100;-40
2023/08/26 03:40:40;;;;;;;5.68;2.20;;;15.70;99.90;;;;;;5137671;27;20421;-40
2023/08/26 03:43:06;;;;;;;4.07;1.83;;;15.70;99.90;;;;;;5154334;27;20053;-40
2023/08/26 03:45:31;;;;;;;3.65;1.88;;;15.70;99.90;;;;;;5137643;27;20403;-40
2023/08/26 03:47:57;;;;;;;4.60;1.65;;;15.70;99.90;;;;;;5137745;27;20384;-40
2023/08/26 03:50:23;;;;;;;5.63;1.60;;;15.60;99.90;;;;;;5137693;27;20539;-39
2023/08/26 03:52:49;;;;;;;5.35;1.50;;;15.60;99.90;;;;;;5137543;27;20050;-40
2023/08/26 03:55:14;;;;;;;2.63;1.40;;;15.60;99.90;;;;;;5137475;27;20046;-40
2023/08/26 03:57:40;;;;;;;2.53;1.08;;;15.60;99.90;;;;;;5137216;27;20764;-39
2023/08/26 04:00:07;;;;;;;3.92;1.20;;;15.60;99.90;;;;;;5137786;27;20049;-40
2023/08/26 04:02:33;;;;;;;4.45;1.30;;;15.60;99.90;;;;;;5137412;27;20050;-39
2023/08/26 04:04:59;;;;;;;4.45;1.50;;;15.60;99.90;;;;;;5137296;27;20043;-39
2023/08/26 04:07:24;;;;;;;4.67;1.40;;;15.60;99.90;;;;;;5136730;27;20561;-39
2023/08/26 04:09:50;;;;;;;6.37;1.40;;;15.60;99.90;;;;;;5137261;27;20334;-40
2023/08/26 04:12:16;;;;;;;3.47;1.40;;;15.60;99.90;;;;;;5137008;27;20043;-40
2023/08/26 04:14:41;;;;;;;2.75;1.45;;;15.60;99.90;;;;;;5137068;27;20078;-40
2023/08/26 04:17:07;;;;;;;3.78;1.20;;;15.60;99.90;;;;;;5137171;27;20043;-39
2023/08/26 04:19:33;;;;;;;2.95;1.38;;;15.50;99.90;;;;;;5137099;27;20463;-39
2023/08/26 04:22:00;;;;;;;2.80;1.25;;;15.60;99.90;;;;;;5136992;27;20380;-40
2023/08/26 04:24:25;;;;;;;2.85;1.23;;;15.50;99.90;;;;;;5136841;27;20086;-40
2023/08/26 04:26:51;;;;;;;3.47;1.25;;;15.60;99.90;;;;;;5118943;27;20078;-40
2023/08/26 04:29:17;;;;;;;2.77;1.23;;;15.60;99.90;;;;;;5136881;27;20072;-40
2023/08/26 04:31:42;;;;;;;2.53;1.10;;;15.60;99.90;;;;;;5118828;27;20620;-39
2023/08/26 04:34:08;;;;;;;3.57;1.10;;;15.60;99.90;;;;;;5136615;27;20340;-39
2023/08/26 04:36:33;;;;;;;4.65;1.20;;;15.60;99.90;;;;;;5136725;27;20127;-39
2023/08/26 04:38:59;;;;;;;4.27;1.30;;;15.60;99.90;;;;;;5136468;27;20046;-39
2023/08/26 04:41:25;;;;;;;4.38;1.10;;;15.60;99.90;;;;;;5136338;27;20277;-40
2023/08/26 04:43:53;;;;;;;2.63;1.20;;;15.60;99.90;;;;;;5118368;27;20364;-39
2023/08/26 04:46:19;;;;;;;3.40;1.23;;;15.60;99.90;;;;;;5136485;27;20448;-39
2023/08/26 04:48:45;;;;;;;3.00;1.40;;;15.60;99.90;;;;;;5136505;27;20439;-39
2023/08/26 04:51:10;;;;;;;3.78;1.52;;;15.60;99.90;;;;;;5136500;27;20043;-39
2023/08/26 04:53:36;;;;;;;3.88;1.95;;;15.60;99.90;;;;;;5136173;27;20043;-39
2023/08/26 04:56:03;;;;;;;3.38;1.50;;;15.60;99.90;;;;;;5136103;27;20044;-40
2023/08/26 04:58:30;;;;;;;3.03;1.30;;;15.60;99.90;;;;;;5136314;27;20441;-39
2023/08/26 05:00:57;;;;;;;3.10;1.25;;;15.60;99.90;;;;;;5136252;27;20039;-39
2023/08/26 05:03:22;;;;;;;4.45;1.38;;;15.60;99.90;;;;;;5136237;27;20090;-39
2023/08/26 05:05:48;;;;;;;2.67;1.03;;;15.70;99.90;;;;;;5117938;27;20078;-39
2023/08/26 05:08:14;;;;;;;2.50;1.10;;;15.70;99.90;;;;;;5136000;27;20288;-40
2023/08/26 05:10:40;;;;;;;5.07;1.40;;;15.70;99.90;;;;;;5117693;27;20288;-40
2023/08/26 05:13:06;;;;;;;2.88;1.05;;;15.70;99.90;;;;;;5136279;27;20349;-39
2023/08/26 05:15:32;;;;;;;3.53;1.50;;;15.70;99.90;;;;;;5135899;27;20460;-39
2023/08/26 05:17:58;;;;;;;2.72;1.10;;;15.70;99.90;;;;;;5135719;27;20050;-39
2023/08/26 05:20:24;;;;;;;3.47;1.25;;;15.80;99.90;;;;;;5135087;27;20130;-39
2023/08/26 05:22:50;;;;;;;3.77;1.30;;;15.80;99.90;;;;;;5135590;27;20046;-39
2023/08/26 05:25:15;;;;;;;3.95;1.60;;;15.80;99.90;;;;;;5135582;27;20273;-39
2023/08/26 05:27:41;;;;;;;2.80;1.20;;;15.80;99.90;;;;;;5117804;27;20051;-39
2023/08/26 05:30:07;;;;;;;3.53;1.23;;;15.80;99.90;;;;;;5117312;27;20039;-39
2023/08/26 05:32:34;;;;;;;4.78;1.40;;;15.90;99.90;;;;;;5135812;27;20399;-39
2023/08/26 05:34:59;;;;;;;4.00;1.27;;;15.90;99.90;;;;;;5117251;27;20050;-41
2023/08/26 05:37:25;;;;;;;2.90;1.20;;;15.90;99.90;;;;;;5135406;27;20043;-41
2023/08/26 05:39:50;;;;;;;3.17;1.10;;;15.90;99.90;;;;;;5135250;27;20372;-41
2023/08/26 05:42:16;;;;;;;4.32;1.77;;;16.00;99.90;;;;;;5135425;27;20080;-41
2023/08/26 05:44:42;;;;;;;3.67;1.42;;;16.00;99.90;;;;;;5135411;27;20078;-41
2023/08/26 05:47:07;;;;;;;3.45;1.70;;;16.00;99.90;;;;;;5135379;27;20058;-41
2023/08/26 05:49:33;;;;;;;3.75;1.50;;;16.00;99.90;;;;;;5135207;27;20394;-42
2023/08/26 05:51:59;;;;;;;3.83;1.60;;;16.00;99.90;;;;;;5134996;27;20085;-41
2023/08/26 05:54:25;;;;;;;4.72;1.90;;;16.00;99.90;;;;;;5134876;27;20300;-41
2023/08/26 05:56:50;;;;;;;4.57;1.70;;;16.00;99.90;;;;;;5135799;27;20046;-41
2023/08/26 05:59:16;;;;;;;4.35;1.75;;;16.00;99.90;;;;;;5135689;27;20407;-41
2023/08/26 06:01:42;;;;;;;4.32;1.65;;;16.00;99.90;;;;;;5135240;27;20043;-41
2023/08/26 06:04:08;;;;;;;4.82;1.88;;;16.00;99.90;;;;;;5134916;27;20475;-41
2023/08/26 06:06:34;;;;;;;8.00;1.70;;;16.00;99.90;;;;;;5134875;27;20068;-41
2023/08/26 06:09:00;;;;;;;2.83;1.38;;;16.00;99.90;;;;;;5151162;27;20112;-41
2023/08/26 06:11:26;;;;;;;5.82;1.80;;;16.00;99.90;;;;;;5135207;27;20047;-41
2023/08/26 06:13:51;;;;;;;4.80;1.80;;;16.00;99.90;;;;;;5135288;27;20035;-41
2023/08/26 06:16:20;;;;;;;3.35;1.40;;;16.00;99.90;;;;;;5134827;27;20043;-41
2023/08/26 06:18:49;;;;;;;3.42;1.70;;;16.00;99.90;;;;;;5134630;27;20491;-41
2023/08/26 06:21:15;;;;;;;7.07;1.77;;;16.10;99.90;;;;;;5134760;27;20076;-42
2023/08/26 06:23:41;;;;;;;5.97;1.52;;;16.10;99.90;;;;;;5134542;27;20046;-41
2023/08/26 06:26:06;;;;;;;3.88;1.70;;;16.10;99.90;;;;;;5134740;27;20491;-41
2023/08/26 06:28:32;;;;;;;3.60;1.60;;;16.10;99.90;;;;;;5099520;27;20078;-41
2023/08/26 06:30:59;;;;;;;3.92;1.55;;;16.10;99.90;;;;;;5134483;27;20402;-41
2023/08/26 06:33:26;;;;;;;2.83;1.52;;;16.10;99.90;;;;;;5134448;27;20121;-41
2023/08/26 06:35:51;;;;;;;3.55;1.40;;;16.00;99.90;;;;;;5134362;27;20039;-42
2023/08/26 06:38:18;;;;;;;2.67;1.15;;;16.00;99.90;;;;;;5134609;28;20046;-41
2023/08/26 06:40:51;;;;;;;3.58;1.20;;;16.00;99.90;;;;;;5134712;28;20419;-42
2023/08/26 06:43:17;;;;;;;4.22;1.38;;;16.00;99.90;;;;;;5099660;28;20104;-41
2023/08/26 06:45:43;;;;;;;2.95;1.30;;;16.00;99.90;;;;;;5134480;28;20421;-41
2023/08/26 06:48:09;;;;;;;3.55;1.15;;;16.00;99.90;;;;;;5134688;28;20250;-41
2023/08/26 06:50:34;;;;;;;2.45;1.20;;;16.00;99.90;;;;;;5134438;28;20039;-41
2023/08/26 06:53:00;;;;;;;2.83;1.37;;;16.00;99.90;;;;;;5134461;28;20054;-41
2023/08/26 06:55:26;;;;;;;4.13;1.40;;;16.00;99.90;;;;;;5134603;28;20780;-42
2023/08/26 06:57:51;;;;;;;2.22;1.25;;;16.00;99.90;;;;;;5134426;28;20280;-41
2023/08/26 07:00:18;;;;;;;1.97;0.90;;;15.90;99.90;;;;;;5116176;28;20043;-41
2023/08/26 07:02:43;;;;;;;;;;;15.90;99.90;;;;;;5099678;28;20053;-41
2023/08/26 07:05:09;;;;;;;2.72;1.17;;;15.90;99.90;;;;;;5134170;28;20375;-42
2023/08/26 07:07:36;;;;;;;3.95;1.45;;;15.90;99.90;;;;;;5150747;27;20391;-41
2023/08/26 07:10:02;;;;;;;3.45;1.00;;;16.00;99.90;;;;;;5134371;28;20426;-41
2023/08/26 07:12:29;;;;;;;2.42;1.23;;;15.90;99.90;;;;;;5134147;28;20099;-41
2023/08/26 07:14:54;;;;;;;3.38;1.08;;;15.90;99.90;;;;;;5116127;28;20372;-41
2023/08/26 07:17:20;;;;;;;3.65;1.42;;;15.90;99.90;;;;;;5134044;28;20054;-41
2023/08/26 07:19:46;;;;;;;2.67;1.20;;;15.90;99.90;;;;;;5133967;28;20047;-41
2023/08/26 07:22:11;;;;;;;3.17;1.30;;;16.00;99.90;;;;;;5134467;28;20039;-41
2023/08/26 07:24:37;;;;;;;2.83;1.40;;;16.00;99.90;;;;;;5134401;28;20126;-41
2023/08/26 07:27:03;;;;;;;2.38;1.00;;;16.00;99.90;;;;;;5134312;28;20136;-41
2023/08/26 07:29:36;;;;;;;2.83;1.05;;;16.00;99.90;;;;;;5133958;28;20047;-41
2023/08/26 07:32:02;;;;;;;3.40;1.20;;;16.00;99.90;;;;;;5115576;28;20403;-41
2023/08/26 07:34:28;;;;;;;4.43;1.30;;;16.00;99.90;;;;;;5133635;28;20043;-41
2023/08/26 07:36:53;;;;;;;3.93;1.87;;;16.10;99.90;;;;;;5134510;28;20047;-41
2023/08/26 07:39:20;;;;;;;3.10;1.38;;;16.10;99.90;;;;;;5134114;28;20047;-41
2023/08/26 07:41:46;;;;;;;2.97;1.50;;;16.10;99.90;;;;;;5134246;27;20047;-41
2023/08/26 07:44:12;;;;;;;2.75;1.30;;;16.10;99.90;;;;;;5137770;27;20100;-41
2023/08/26 07:46:38;;;;;;;4.93;2.17;;;16.20;99.90;;;;;;5137366;27;20047;-41
2023/08/26 07:49:04;;;;;;;4.63;2.13;;;16.30;99.90;;;;;;5137387;27;20112;-41
2023/08/26 07:51:29;;;;;;;8.05;3.25;;;16.40;99.90;;;;;;5137358;27;20043;-41
2023/08/26 07:53:55;;;;;;;6.03;3.22;;;16.40;99.90;;;;;;5119223;27;20049;-41
2023/08/26 07:56:21;;;;;;;6.95;3.67;;;16.40;99.90;;;;;;5137478;27;20043;-41
2023/08/26 07:58:46;;;;;;;7.85;4.15;;;16.50;99.90;;;;;;5137397;27;20043;-41
2023/08/26 08:01:13;;;;;;;8.73;4.78;;;16.50;99.90;;;;;;5137649;27;20043;-41
2023/08/26 08:03:39;;;;;;;10.50;5.72;;;16.60;99.90;;;;;;5137270;27;20483;-41
2023/08/26 08:06:05;;;;;;;11.50;6.28;;;16.70;99.90;;;;;;5137277;27;20043;-41
2023/08/26 08:08:30;;;;;;;11.40;5.80;;;16.70;99.90;;;;;;5137626;27;20039;-41
2023/08/26 08:10:56;;;;;;;11.50;6.67;;;16.70;99.90;;;;;;5137409;27;20436;-41
2023/08/26 08:13:21;;;;;;;11.73;6.30;;;16.80;99.90;;;;;;5136993;27;20277;-41
2023/08/26 08:15:47;;;;;;;12.95;7.35;;;16.90;99.90;;;;;;5137129;27;20035;-41
2023/08/26 08:18:13;;;;;;;9.93;6.68;;;16.90;99.90;;;;;;5118865;27;20051;-42
2023/08/26 08:20:38;;;;;;;11.07;7.28;;;17.00;99.90;;;;;;5137026;27;20494;-41
2023/08/26 08:23:05;;;;;;;13.20;6.95;;;17.00;99.90;;;;;;5119330;27;20039;-41
2023/08/26 08:25:31;;;;;;;10.00;6.28;;;17.00;99.90;;;;;;5137095;27;20047;-41
2023/08/26 08:27:57;;;;;;;12.07;6.70;;;17.10;99.90;;;;;;5136929;27;20051;-41
2023/08/26 08:30:22;;;;;;;10.77;7.38;;;17.10;99.90;;;;;;5136663;27;20051;-41
2023/08/26 08:32:49;;;;;;;12.45;7.45;;;17.10;99.90;;;;;;5118434;27;20081;-41
2023/08/26 08:35:14;;;;;;;13.60;7.80;;;17.20;99.90;;;;;;5136432;27;20047;-41
2023/08/26 08:37:40;;;;;;;13.48;7.55;;;17.20;99.90;;;;;;5137023;27;20142;-41
2023/08/26 08:40:06;;;;;;;12.13;7.30;;;17.20;99.90;;;;;;5136713;27;20399;-41
2023/08/26 08:42:36;;;;;;;13.63;7.65;;;17.30;99.90;;;;;;5136633;27;20042;-41
2023/08/26 08:45:03;;;;;;;12.32;7.25;;;17.30;99.90;;;;;;5136633;27;20168;-41
2023/08/26 08:47:30;;;;;;;11.93;7.28;;;17.40;99.90;;;;;;5136319;27;20103;-42
2023/08/26 08:49:57;;;;;;;;;;;17.50;99.90;;;;;;5136922;27;20063;-41
2023/08/26 08:52:23;;;;;;;11.10;7.53;;;17.60;99.90;;;;;;5118853;27;19926;-41
2023/08/26 08:54:49;;;;;;;13.23;7.05;;;17.60;99.90;;;;;;5136252;27;20061;-42
2023/08/26 08:57:16;;;;;;;11.38;7.25;;;17.70;99.90;;;;;;5136389;27;20063;-41
2023/08/26 08:59:43;;;;;;;12.27;7.70;;;17.70;99.90;;;;;;5136208;27;20051;-42
2023/08/26 09:02:11;;;;;;;11.05;6.70;;;17.70;99.90;;;;;;5135989;27;20107;-41
2023/08/26 09:04:37;;;;;;;11.43;7.00;;;17.70;99.90;;;;;;5136186;27;20078;-42
2023/08/26 09:07:04;;;;;;;12.05;6.65;;;17.70;99.90;;;;;;5118394;27;20046;-41
2023/08/26 09:09:30;;;;;;;9.98;6.43;;;17.60;99.90;;;;;;5136167;27;20050;-42
2023/08/26 09:11:56;;;;;;;11.73;6.63;;;17.60;99.90;;;;;;5117662;27;20118;-41
2023/08/26 09:14:22;;;;;;;12.00;7.28;;;17.60;99.90;;;;;;5135642;27;20051;-41
2023/08/26 09:16:48;;;;;;;10.00;6.20;;;17.60;99.90;;;;;;5135641;27;20043;-41
2023/08/26 09:19:14;;;;;;;9.88;6.20;;;17.70;99.90;;;;;;5135879;27;20472;-41
2023/08/26 09:21:44;;;;;;;9.77;6.05;;;17.70;99.90;;;;;;5135767;27;20040;-41
2023/08/26 09:24:14;;;;;;;9.25;6.25;;;17.80;99.90;;;;;;5135851;27;20042;-41
2023/08/26 09:26:41;;;;;;;10.70;6.85;;;17.80;99.90;;;;;;5135672;27;20122;-41
2023/08/26 09:29:20;;;;;;;11.18;5.85;;;17.90;99.90;;;;;;5135502;27;20089;-42
2023/08/26 09:31:50;;;;;;;10.23;6.18;;;18.00;99.90;;;;;;5135682;27;20058;-42
2023/08/26 09:34:28;;;;;;;9.35;5.60;;;18.00;99.90;;;;;;5135931;27;20047;-41
2023/08/26 09:36:53;;;;;;;9.13;4.82;;;18.10;99.90;;;;;;5135643;27;20054;-41
2023/08/26 09:39:19;;;;;;;7.63;4.43;;;18.20;99.90;;;;;;5117136;27;20043;-41
2023/08/26 09:41:45;;;;;;;8.02;4.68;;;18.20;99.90;;;;;;5135259;27;20119;-41
2023/08/26 09:44:12;;;;;;;;;;;18.20;99.90;;;;;;5135904;27;20118;-41
2023/08/26 09:46:39;;;;;;;8.85;4.75;;;18.30;99.90;;;;;;5151258;27;19919;-41
2023/08/26 09:49:15;;;;;;;10.10;4.32;;;18.30;99.90;;;;;;5135287;27;20159;-41
2023/08/26 09:51:50;;;;;;;7.60;3.65;;;18.50;99.90;;;;;;5135381;27;20086;-41
2023/08/26 09:54:19;;;;;;;7.47;4.05;;;18.60;99.90;;;;;;5135074;27;20042;-42
2023/08/26 09:56:49;;;;;;;7.95;4.60;;;18.60;99.90;;;;;;5117047;27;20479;-41
2023/08/26 09:59:15;;;;;;;6.93;3.80;;;18.60;99.90;;;;;;5135138;27;20432;-42
2023/08/26 10:01:42;;;;;;;7.80;3.80;;;18.70;99.90;;;;;;5135061;27;20047;-41
2023/08/26 10:04:09;;;;;;;8.68;4.40;;;18.70;99.90;;;;;;5135043;27;20078;-41
2023/08/26 10:06:55;;;;;;;7.32;4.40;;;18.70;99.90;;;;;;5134496;27;20043;-42
2023/08/26 10:09:32;;;;;;;7.78;4.47;;;18.80;99.90;;;;;;5135028;27;20039;-42
2023/08/26 10:12:03;;;;;;;6.78;3.55;;;18.80;99.90;;;;;;5135199;27;20085;-41
2023/08/26 10:14:30;;;;;;;6.55;3.38;;;18.90;99.90;;;;;;5134885;27;20043;-42
2023/08/26 10:16:59;;;;;;;8.70;3.90;;;18.90;99.90;;;;;;5134864;27;20043;-41
2023/08/26 10:19:25;;;;;;;6.97;3.65;;;18.90;99.90;;;;;;5134551;27;20514;-42
2023/08/26 10:21:52;;;;;;;6.85;3.92;;;18.90;99.90;;;;;;5134916;27;20513;-41
2023/08/26 10:24:18;;;;;;;7.93;3.92;;;18.90;99.90;;;;;;5134558;27;20503;-42
2023/08/26 10:26:44;;;;;;;6.75;3.90;;;18.80;99.90;;;;;;5134802;27;20054;-41
2023/08/26 10:29:10;;;;;;;7.57;3.10;;;18.70;99.90;;;;;;5134701;27;20054;-41
2023/08/26 10:31:38;;;;;;;;;;;18.60;99.90;;;;;;5135023;27;20047;-41
2023/08/26 10:34:07;;;;;;;4.25;2.10;;;18.40;99.90;;;;;;5134458;27;19927;-40
2023/08/26 10:36:37;;;;;;;5.07;1.90;;;18.20;99.90;;;;;;5135021;27;20076;-41
2023/08/26 10:39:04;;;;;;;2.20;0.98;;;18.00;99.90;;;;;;5134625;28;20051;-41
2023/08/26 10:41:30;;;;;;;2.42;0.80;;;17.70;99.90;;;;;;5134605;28;20039;-41
2023/08/26 10:43:58;;;;;;;;;;;17.50;99.90;;;;;;5135013;28;20047;-41
2023/08/26 10:46:33;;;;;;;;;;;17.20;99.90;;;;;;5134532;28;19920;-41
2023/08/26 10:49:03;;;;;;;1.65;0.60;;;17.00;99.90;;;;;;5116457;28;19919;-41
2023/08/26 10:51:30;;;;;;;2.35;0.80;;;16.80;99.90;;;;;;5134670;28;20051;-41
2023/08/26 10:54:03;;;;;;;1.48;0.65;;;16.60;99.90;;;;;;5134459;28;20092;-42
2023/08/26 10:56:33;;;;;;;2.10;0.88;;;16.50;99.90;;;;;;5134301;28;20082;-42
2023/08/26 10:59:03;;;;;;;1.27;0.50;;;16.40;99.90;;;;;;5134274;28;20043;-42
2023/08/26 11:01:35;;;;;;;1.55;0.50;;;16.30;99.90;;;;;;5134604;28;20051;-42
2023/08/26 11:04:03;;;;;;;1.10;0.47;;;16.30;99.90;;;;;;5134537;28;20063;-42
2023/08/26 11:06:36;;;;;;;1.55;0.50;;;16.30;99.90;;;;;;5134457;28;20049;-41
2023/08/26 11:09:03;;;;;;;1.98;0.63;;;16.30;99.90;;;;;;5134238;28;20514;-41
2023/08/26 11:11:29;;;;;;;1.80;0.40;;;16.30;99.90;;;;;;5134126;28;20062;-42
2023/08/26 11:13:54;;;;;;;2.20;0.70;;;16.30;99.90;;;;;;5134048;28;20051;-41
2023/08/26 11:16:22;;;;;;;2.80;0.65;;;16.40;99.90;;;;;;5116073;28;20050;-41
2023/08/26 11:18:50;;;;;;;1.88;0.68;;;16.50;99.90;;;;;;5137818;27;20044;-41
2023/08/26 11:21:16;;;;;;;1.60;0.50;;;16.60;99.90;;;;;;5138146;27;20042;-41
2023/08/26 11:23:41;;;;;;;1.35;0.50;;;16.80;99.90;;;;;;5119885;27;20046;-41
2023/08/26 11:26:07;;;;;;;0.77;0.50;;;16.80;99.90;;;;;;5119502;27;20073;-41
2023/08/26 11:28:33;;;;;;;1.73;0.70;;;16.90;99.90;;;;;;5120035;27;20057;-41
2023/08/26 11:31:00;;;;;;;1.52;0.70;;;16.90;99.90;;;;;;5138088;27;20534;-41
2023/08/26 11:33:26;;;;;;;;;;;17.00;99.90;;;;;;5138251;27;20126;-41
2023/08/26 11:35:52;;;;;;;3.57;1.23;;;17.10;99.90;;;;;;5137822;27;19967;-41
2023/08/26 11:38:18;;;;;;;3.55;1.33;;;17.30;99.90;;;;;;5137708;27;20075;-41
2023/08/26 11:40:45;;;;;;;2.70;1.50;;;17.40;99.90;;;;;;5137757;27;20051;-41
2023/08/26 11:43:16;;;;;;;3.65;1.50;;;17.50;99.90;;;;;;5137773;27;20398;-41
2023/08/26 11:45:46;;;;;;;2.97;1.50;;;17.60;99.90;;;;;;5137701;27;20551;-41
2023/08/26 11:48:13;;;;;;;4.32;1.70;;;17.80;99.90;;;;;;5137604;27;20548;-41
2023/08/26 11:50:42;;;;;;;;;;;18.00;99.90;;;;;;5137997;27;20071;-41
2023/08/26 11:53:08;;;;;;;6.90;2.63;;;18.20;99.90;;;;;;5137425;27;19927;-41
2023/08/26 11:55:35;;;;;;;5.03;2.38;;;18.30;99.90;;;;;;5119274;27;20039;-41
2023/08/26 11:58:02;;;;;;;4.53;2.78;;;18.50;99.90;;;;;;5137532;27;20050;-40
2023/08/26 12:00:28;;;;;;;3.88;2.17;;;18.60;99.90;;;;;;5137528;27;20395;-41
2023/08/26 12:03:00;;;;;;;4.90;2.83;;;18.60;99.90;;;;;;5119058;27;20431;-41
2023/08/26 12:05:26;;;;;;;6.72;3.20;;;18.60;99.90;;;;;;5137368;27;20062;-41
2023/08/26 12:07:56;;;;;;;6.43;2.70;;;18.50;99.90;;;;;;5118895;27;20475;-39
2023/08/26 12:10:23;;;;;;;6.70;2.97;;;18.40;99.90;;;;;;5137607;27;20078;-39
2023/08/26 12:12:48;;;;;;;5.63;2.80;;;18.30;99.90;;;;;;5137130;27;20039;-38
2023/08/26 12:15:16;;;;;;;6.95;2.53;;;18.30;99.90;;;;;;5137269;27;20062;-40
2023/08/26 12:17:48;;;;;;;6.68;2.92;;;18.30;99.90;;;;;;5118837;27;20044;-41
2023/08/26 12:20:31;;;;;;;4.93;2.53;;;18.40;99.90;;;;;;5136705;27;20043;-41
2023/08/26 12:23:01;;;;;;;5.25;2.50;;;18.50;99.90;;;;;;5136989;27;20376;-41
2023/08/26 12:25:32;;;;;;;5.55;2.70;;;18.50;99.90;;;;;;5136809;27;20551;-41
2023/08/26 12:28:05;;;;;;;6.35;2.90;;;18.60;99.90;;;;;;5136548;27;20043;-39
2023/08/26 12:30:31;;;;;;;5.93;2.85;;;18.80;99.90;;;;;;5136773;27;20047;-42
2023/08/26 12:32:57;;;;;;;4.60;2.88;;;19.00;99.90;;;;;;5137153;27;20372;-41
2023/08/26 12:35:23;;;;;;;5.18;2.92;;;19.30;99.90;;;;;;5136442;27;20035;-41
2023/08/26 12:37:48;;;;;;;5.82;3.13;;;19.50;99.90;;;;;;5118744;27;20043;-41
2023/08/26 12:40:14;;;;;;;5.65;2.72;;;19.70;99.90;;;;;;5136623;27;20044;-42
2023/08/26 12:42:40;;;;;;;5.10;2.60;;;19.80;99.90;;;;;;5136700;27;20043;-41
2023/08/26 12:45:06;;;;;;;3.90;2.10;;;19.90;99.90;;;;;;5136361;27;20078;-41
2023/08/26 12:47:32;;;;;;;5.13;2.05;;;20.00;99.90;;;;;;5136261;27;20059;-41